sensor_id;sensor_type;location;lat;lon;timestamp;temperature;humidity
17200;DHT22;8716;52.268;20.968;2022-11-23T00:01:13;3.10;99.90
17200;DHT22;8716;52.268;20.968;2022-11-23T00:03:42;3.20;99.90
17200;DHT22;8716;52.268;20.968;2022-11-23T00:06:11;3.20;99.90
17200;DHT22;8716;52.268;20.968;2022-11-23T00:08:39;3.30;99.90
17200;DHT22;8716;52.268;20.968;2022-11-23T00:11:08;3.30;99.90
17200;DHT22;8716;52.268;20.968;2022-11-23T00:13:36;3.30;99.90
17200;DHT22;8716;52.268;20.968;2022-11-23T00:16:08;3.30;99.90
17200;DHT22;8716;52.268;20.968;2022-11-23T00:18:36;3.40;99.90
17200;DHT22;8716;52.268;20.968;2022-11-23T00:21:06;3.30;99.90
17200;DHT22;8716;52.268;20.968;2022-11-23T00:23:34;3.40;99.90
17200;DHT22;8716;52.268;20.968;2022-11-23T00:26:03;3.40;99.90
17200;DHT22;8716;52.268;20.968;2022-11-23T00:28:31;3.30;99.90
17200;DHT22;8716;52.268;20.968;2022-11-23T00:31:02;3.40;99.90
17200;DHT22;8716;52.268;20.968;2022-11-23T00:33:32;3.40;99.90
17200;DHT22;8716;52.268;20.968;2022-11-23T00:36:01;3.40;99.90
17200;DHT22;8716;52.268;20.968;2022-11-23T00:38:30;3.30;99.90
17200;DHT22;8716;52.268;20.968;2022-11-23T00:40:59;3.30;99.90
17200;DHT22;8716;52.268;20.968;2022-11-23T00:43:28;3.40;99.90
17200;DHT22;8716;52.268;20.968;2022-11-23T00:46:05;3.30;99.90
17200;DHT22;8716;52.268;20.968;2022-11-23T00:48:35;3.30;99.90
17200;DHT22;8716;52.268;20.968;2022-11-23T00:51:05;3.40;99.90
17200;DHT22;8716;52.268;20.968;2022-11-23T00:53:34;3.40;99.90
17200;DHT22;8716;52.268;20.968;2022-11-23T00:56:03;3.40;99.90
17200;DHT22;8716;52.268;20.968;2022-11-23T00:58:34;3.50;99.90
17200;DHT22;8716;52.268;20.968;2022-11-23T01:01:07;3.50;99.90
17200;DHT22;8716;52.268;20.968;2022-11-23T01:03:39;3.50;99.90
17200;DHT22;8716;52.268;20.968;2022-11-23T01:06:09;3.50;99.90
17200;DHT22;8716;52.268;20.968;2022-11-23T01:08:38;3.40;99.90
17200;DHT22;8716;52.268;20.968;2022-11-23T01:11:09;3.40;99.90
17200;DHT22;8716;52.268;20.968;2022-11-23T01:13:39;3.40;99.90
17200;DHT22;8716;52.268;20.968;2022-11-23T01:16:12;3.50;99.90
17200;DHT22;8716;52.268;20.968;2022-11-23T01:18:52;3.50;99.90
17200;DHT22;8716;52.268;20.968;2022-11-23T01:21:22;3.50;99.90
17200;DHT22;8716;52.268;20.968;2022-11-23T01:23:50;3.60;99.90
17200;DHT22;8716;52.268;20.968;2022-11-23T01:26:18;3.50;99.90
17200;DHT22;8716;52.268;20.968;2022-11-23T01:28:47;3.60;99.90
17200;DHT22;8716;52.268;20.968;2022-11-23T01:31:18;3.60;99.90
17200;DHT22;8716;52.268;20.968;2022-11-23T01:33:52;3.50;99.90
17200;DHT22;8716;52.268;20.968;2022-11-23T01:36:22;3.50;99.90
17200;DHT22;8716;52.268;20.968;2022-11-23T01:38:51;3.50;99.90
17200;DHT22;8716;52.268;20.968;2022-11-23T01:41:22;3.50;99.90
17200;DHT22;8716;52.268;20.968;2022-11-23T01:43:51;3.40;99.90
17200;DHT22;8716;52.268;20.968;2022-11-23T01:46:19;3.40;99.90
17200;DHT22;8716;52.268;20.968;2022-11-23T01:48:50;3.30;99.90
17200;DHT22;8716;52.268;20.968;2022-11-23T01:51:25;3.30;99.90
17200;DHT22;8716;52.268;20.968;2022-11-23T01:53:56;3.30;99.90
17200;DHT22;8716;52.268;20.968;2022-11-23T01:56:30;3.40;99.90
17200;DHT22;8716;52.268;20.968;2022-11-23T01:59:02;3.30;99.90
17200;DHT22;8716;52.268;20.968;2022-11-23T02:01:32;3.30;99.90
17200;DHT22;8716;52.268;20.968;2022-11-23T02:04:01;3.30;99.90
17200;DHT22;8716;52.268;20.968;2022-11-23T02:06:32;3.30;99.90
17200;DHT22;8716;52.268;20.968;2022-11-23T02:09:01;3.40;99.90
17200;DHT22;8716;52.268;20.968;2022-11-23T02:11:30;3.40;99.90
17200;DHT22;8716;52.268;20.968;2022-11-23T02:13:58;3.40;99.90
17200;DHT22;8716;52.268;20.968;2022-11-23T02:16:29;3.40;99.90
17200;DHT22;8716;52.268;20.968;2022-11-23T02:18:57;3.40;99.90
17200;DHT22;8716;52.268;20.968;2022-11-23T02:21:28;3.40;99.90
17200;DHT22;8716;52.268;20.968;2022-11-23T02:24:00;3.40;99.90
17200;DHT22;8716;52.268;20.968;2022-11-23T02:26:36;3.40;99.90
17200;DHT22;8716;52.268;20.968;2022-11-23T02:29:07;3.40;99.90
17200;DHT22;8716;52.268;20.968;2022-11-23T02:31:37;3.50;99.90
17200;DHT22;8716;52.268;20.968;2022-11-23T02:34:05;3.50;99.90
17200;DHT22;8716;52.268;20.968;2022-11-23T02:36:38;3.50;99.90
17200;DHT22;8716;52.268;20.968;2022-11-23T02:39:09;3.40;99.90
17200;DHT22;8716;52.268;20.968;2022-11-23T02:41:42;3.40;99.90
17200;DHT22;8716;52.268;20.968;2022-11-23T02:44:30;3.40;99.90
17200;DHT22;8716;52.268;20.968;2022-11-23T02:46:58;3.30;99.90
17200;DHT22;8716;52.268;20.968;2022-11-23T02:49:27;3.30;99.90
17200;DHT22;8716;52.268;20.968;2022-11-23T02:51:55;3.30;99.90
17200;DHT22;8716;52.268;20.968;2022-11-23T02:54:25;3.30;99.90
17200;DHT22;8716;52.268;20.968;2022-11-23T02:56:54;3.30;99.90
17200;DHT22;8716;52.268;20.968;2022-11-23T02:59:22;3.30;99.90
17200;DHT22;8716;52.268;20.968;2022-11-23T03:01:51;3.30;99.90
17200;DHT22;8716;52.268;20.968;2022-11-23T03:04:19;3.30;99.90
17200;DHT22;8716;52.268;20.968;2022-11-23T03:06:53;3.20;99.90
17200;DHT22;8716;52.268;20.968;2022-11-23T03:09:22;3.30;99.90
17200;DHT22;8716;52.268;20.968;2022-11-23T03:11:54;3.20;99.90
17200;DHT22;8716;52.268;20.968;2022-11-23T03:14:24;3.20;99.90
17200;DHT22;8716;52.268;20.968;2022-11-23T03:16:57;3.20;99.90
17200;DHT22;8716;52.268;20.968;2022-11-23T03:19:28;3.20;99.90
17200;DHT22;8716;52.268;20.968;2022-11-23T03:21:57;3.20;99.90
17200;DHT22;8716;52.268;20.968;2022-11-23T03:24:29;3.10;99.90
17200;DHT22;8716;52.268;20.968;2022-11-23T03:26:59;3.10;99.90
17200;DHT22;8716;52.268;20.968;2022-11-23T03:29:28;3.10;99.90
17200;DHT22;8716;52.268;20.968;2022-11-23T03:31:59;3.00;99.90
17200;DHT22;8716;52.268;20.968;2022-11-23T03:34:27;3.00;99.90
17200;DHT22;8716;52.268;20.968;2022-11-23T03:36:55;3.00;99.90
17200;DHT22;8716;52.268;20.968;2022-11-23T03:39:24;3.00;99.90
17200;DHT22;8716;52.268;20.968;2022-11-23T03:42:12;3.00;99.90
17200;DHT22;8716;52.268;20.968;2022-11-23T03:44:41;3.10;99.90
17200;DHT22;8716;52.268;20.968;2022-11-23T03:47:09;3.10;99.90
17200;DHT22;8716;52.268;20.968;2022-11-23T03:49:38;3.20;99.90
17200;DHT22;8716;52.268;20.968;2022-11-23T03:52:07;3.20;99.90
17200;DHT22;8716;52.268;20.968;2022-11-23T03:54:35;3.10;99.90
17200;DHT22;8716;52.268;20.968;2022-11-23T03:57:03;3.10;99.90
17200;DHT22;8716;52.268;20.968;2022-11-23T03:59:33;3.10;99.90
17200;DHT22;8716;52.268;20.968;2022-11-23T04:02:01;3.10;99.90
17200;DHT22;8716;52.268;20.968;2022-11-23T04:04:34;3.10;99.90
17200;DHT22;8716;52.268;20.968;2022-11-23T04:07:22;3.10;99.90
17200;DHT22;8716;52.268;20.968;2022-11-23T04:10:00;3.20;99.90
17200;DHT22;8716;52.268;20.968;2022-11-23T04:12:49;3.20;99.90
17200;DHT22;8716;52.268;20.968;2022-11-23T04:15:19;3.20;99.90
17200;DHT22;8716;52.268;20.968;2022-11-23T04:17:48;3.20;99.90
17200;DHT22;8716;52.268;20.968;2022-11-23T04:20:16;3.20;99.90
17200;DHT22;8716;52.268;20.968;2022-11-23T04:22:44;3.20;99.90
17200;DHT22;8716;52.268;20.968;2022-11-23T04:25:13;3.10;99.90
17200;DHT22;8716;52.268;20.968;2022-11-23T04:27:41;3.20;99.90
17200;DHT22;8716;52.268;20.968;2022-11-23T04:30:10;3.20;99.90
17200;DHT22;8716;52.268;20.968;2022-11-23T04:32:39;3.10;99.90
17200;DHT22;8716;52.268;20.968;2022-11-23T04:35:09;3.10;99.90
17200;DHT22;8716;52.268;20.968;2022-11-23T04:37:37;3.00;99.90
17200;DHT22;8716;52.268;20.968;2022-11-23T04:40:09;3.00;99.90
17200;DHT22;8716;52.268;20.968;2022-11-23T04:42:57;3.00;99.90
17200;DHT22;8716;52.268;20.968;2022-11-23T04:45:31;3.00;99.90
17200;DHT22;8716;52.268;20.968;2022-11-23T04:48:05;3.00;99.90
17200;DHT22;8716;52.268;20.968;2022-11-23T04:50:35;2.90;99.90
17200;DHT22;8716;52.268;20.968;2022-11-23T04:53:08;2.90;99.90
17200;DHT22;8716;52.268;20.968;2022-11-23T04:55:41;2.90;99.90
17200;DHT22;8716;52.268;20.968;2022-11-23T04:58:10;2.90;99.90
17200;DHT22;8716;52.268;20.968;2022-11-23T05:00:40;2.80;99.90
17200;DHT22;8716;52.268;20.968;2022-11-23T05:03:11;2.80;99.90
17200;DHT22;8716;52.268;20.968;2022-11-23T05:05:42;2.90;99.90
17200;DHT22;8716;52.268;20.968;2022-11-23T05:08:10;2.90;99.90
17200;DHT22;8716;52.268;20.968;2022-11-23T05:11:08;2.90;99.90
17200;DHT22;8716;52.268;20.968;2022-11-23T05:13:37;2.80;99.90
17200;DHT22;8716;52.268;20.968;2022-11-23T05:16:05;2.70;99.90
17200;DHT22;8716;52.268;20.968;2022-11-23T05:18:35;2.70;99.90
17200;DHT22;8716;52.268;20.968;2022-11-23T05:21:03;2.80;99.90
17200;DHT22;8716;52.268;20.968;2022-11-23T05:23:31;2.80;99.90
17200;DHT22;8716;52.268;20.968;2022-11-23T05:26:00;2.90;99.90
17200;DHT22;8716;52.268;20.968;2022-11-23T05:28:29;2.90;99.90
17200;DHT22;8716;52.268;20.968;2022-11-23T05:31:10;2.90;99.90
17200;DHT22;8716;52.268;20.968;2022-11-23T05:33:42;3.00;99.90
17200;DHT22;8716;52.268;20.968;2022-11-23T05:36:10;3.00;99.90
17200;DHT22;8716;52.268;20.968;2022-11-23T05:38:41;3.00;99.90
17200;DHT22;8716;52.268;20.968;2022-11-23T05:41:14;3.00;99.90
17200;DHT22;8716;52.268;20.968;2022-11-23T05:43:43;3.00;99.90
17200;DHT22;8716;52.268;20.968;2022-11-23T05:46:17;3.00;99.90
17200;DHT22;8716;52.268;20.968;2022-11-23T05:48:47;3.00;99.90
17200;DHT22;8716;52.268;20.968;2022-11-23T05:51:15;2.90;99.90
17200;DHT22;8716;52.268;20.968;2022-11-23T05:53:44;2.80;99.90
17200;DHT22;8716;52.268;20.968;2022-11-23T05:56:33;2.90;99.90
17200;DHT22;8716;52.268;20.968;2022-11-23T05:59:15;2.90;99.90
17200;DHT22;8716;52.268;20.968;2022-11-23T06:01:48;2.90;99.90
17200;DHT22;8716;52.268;20.968;2022-11-23T06:04:27;2.70;99.90
17200;DHT22;8716;52.268;20.968;2022-11-23T06:06:57;2.60;99.90
17200;DHT22;8716;52.268;20.968;2022-11-23T06:09:35;2.60;99.90
17200;DHT22;8716;52.268;20.968;2022-11-23T06:12:07;2.50;99.90
17200;DHT22;8716;52.268;20.968;2022-11-23T06:14:35;2.60;99.90
17200;DHT22;8716;52.268;20.968;2022-11-23T06:17:04;2.60;99.90
17200;DHT22;8716;52.268;20.968;2022-11-23T06:19:41;2.70;99.90
17200;DHT22;8716;52.268;20.968;2022-11-23T06:22:11;2.60;99.90
17200;DHT22;8716;52.268;20.968;2022-11-23T06:24:47;2.60;99.90
17200;DHT22;8716;52.268;20.968;2022-11-23T06:27:32;2.60;99.90
17200;DHT22;8716;52.268;20.968;2022-11-23T06:30:05;2.60;99.90
17200;DHT22;8716;52.268;20.968;2022-11-23T06:32:34;2.50;99.90
17200;DHT22;8716;52.268;20.968;2022-11-23T06:35:04;2.50;99.90
17200;DHT22;8716;52.268;20.968;2022-11-23T06:37:37;2.20;99.90
17200;DHT22;8716;52.268;20.968;2022-11-23T06:40:06;2.20;99.90
17200;DHT22;8716;52.268;20.968;2022-11-23T06:42:34;2.20;99.90
17200;DHT22;8716;52.268;20.968;2022-11-23T06:45:13;2.20;99.90
17200;DHT22;8716;52.268;20.968;2022-11-23T06:47:41;2.20;99.90
17200;DHT22;8716;52.268;20.968;2022-11-23T06:50:11;2.30;99.90
17200;DHT22;8716;52.268;20.968;2022-11-23T06:52:42;2.40;99.90
17200;DHT22;8716;52.268;20.968;2022-11-23T06:55:10;2.50;99.90
17200;DHT22;8716;52.268;20.968;2022-11-23T06:57:38;2.50;99.90
17200;DHT22;8716;52.268;20.968;2022-11-23T07:00:09;2.40;99.90
17200;DHT22;8716;52.268;20.968;2022-11-23T07:02:38;2.40;99.90
17200;DHT22;8716;52.268;20.968;2022-11-23T07:05:06;2.40;99.90
17200;DHT22;8716;52.268;20.968;2022-11-23T07:07:38;2.40;99.90
17200;DHT22;8716;52.268;20.968;2022-11-23T07:10:13;2.50;99.90
17200;DHT22;8716;52.268;20.968;2022-11-23T07:12:48;2.50;99.90
17200;DHT22;8716;52.268;20.968;2022-11-23T07:15:19;2.30;99.90
17200;DHT22;8716;52.268;20.968;2022-11-23T07:17:49;2.30;99.90
17200;DHT22;8716;52.268;20.968;2022-11-23T07:20:19;2.30;99.90
17200;DHT22;8716;52.268;20.968;2022-11-23T07:22:58;2.40;99.90
17200;DHT22;8716;52.268;20.968;2022-11-23T07:25:26;2.40;99.90
17200;DHT22;8716;52.268;20.968;2022-11-23T07:28:00;2.30;99.90
17200;DHT22;8716;52.268;20.968;2022-11-23T07:30:29;2.30;99.90
17200;DHT22;8716;52.268;20.968;2022-11-23T07:32:59;2.30;99.90
17200;DHT22;8716;52.268;20.968;2022-11-23T07:35:28;2.30;99.90
17200;DHT22;8716;52.268;20.968;2022-11-23T07:38:02;2.40;99.90
17200;DHT22;8716;52.268;20.968;2022-11-23T07:40:32;2.40;99.90
17200;DHT22;8716;52.268;20.968;2022-11-23T07:43:04;2.40;99.90
17200;DHT22;8716;52.268;20.968;2022-11-23T07:45:33;2.40;99.90
17200;DHT22;8716;52.268;20.968;2022-11-23T07:48:07;2.40;99.90
17200;DHT22;8716;52.268;20.968;2022-11-23T07:50:37;2.50;99.90
17200;DHT22;8716;52.268;20.968;2022-11-23T07:53:07;2.30;99.90
17200;DHT22;8716;52.268;20.968;2022-11-23T07:55:35;2.10;99.90
17200;DHT22;8716;52.268;20.968;2022-11-23T07:58:05;2.10;99.90
17200;DHT22;8716;52.268;20.968;2022-11-23T08:00:33;2.00;99.90
17200;DHT22;8716;52.268;20.968;2022-11-23T08:03:01;2.10;99.90
17200;DHT22;8716;52.268;20.968;2022-11-23T08:05:52;2.10;99.90
17200;DHT22;8716;52.268;20.968;2022-11-23T08:08:21;2.20;99.90
17200;DHT22;8716;52.268;20.968;2022-11-23T08:10:49;2.10;99.90
17200;DHT22;8716;52.268;20.968;2022-11-23T08:13:22;2.20;99.90
17200;DHT22;8716;52.268;20.968;2022-11-23T08:15:50;2.00;99.90
17200;DHT22;8716;52.268;20.968;2022-11-23T08:18:22;1.90;99.90
17200;DHT22;8716;52.268;20.968;2022-11-23T08:20:50;2.00;99.90
17200;DHT22;8716;52.268;20.968;2022-11-23T08:23:20;1.90;99.90
17200;DHT22;8716;52.268;20.968;2022-11-23T08:25:48;2.00;99.90
17200;DHT22;8716;52.268;20.968;2022-11-23T08:28:19;2.10;99.90
17200;DHT22;8716;52.268;20.968;2022-11-23T08:30:48;2.10;99.90
17200;DHT22;8716;52.268;20.968;2022-11-23T08:33:16;2.10;99.90
17200;DHT22;8716;52.268;20.968;2022-11-23T08:35:44;2.10;99.90
17200;DHT22;8716;52.268;20.968;2022-11-23T08:38:15;2.10;99.90
17200;DHT22;8716;52.268;20.968;2022-11-23T08:40:47;2.20;99.90
17200;DHT22;8716;52.268;20.968;2022-11-23T08:43:15;2.30;99.90
17200;DHT22;8716;52.268;20.968;2022-11-23T08:45:43;2.30;99.90
17200;DHT22;8716;52.268;20.968;2022-11-23T08:48:11;2.30;99.90
17200;DHT22;8716;52.268;20.968;2022-11-23T08:50:40;2.30;99.90
17200;DHT22;8716;52.268;20.968;2022-11-23T08:53:08;2.40;99.90
17200;DHT22;8716;52.268;20.968;2022-11-23T08:55:36;2.40;99.90
17200;DHT22;8716;52.268;20.968;2022-11-23T08:58:08;2.50;99.90
17200;DHT22;8716;52.268;20.968;2022-11-23T09:00:39;2.50;99.90
17200;DHT22;8716;52.268;20.968;2022-11-23T09:03:07;2.50;99.90
17200;DHT22;8716;52.268;20.968;2022-11-23T09:05:37;2.50;99.90
17200;DHT22;8716;52.268;20.968;2022-11-23T09:08:05;2.40;99.90
17200;DHT22;8716;52.268;20.968;2022-11-23T09:10:35;2.30;99.90
17200;DHT22;8716;52.268;20.968;2022-11-23T09:13:03;2.30;99.90
17200;DHT22;8716;52.268;20.968;2022-11-23T09:15:33;2.30;99.90
17200;DHT22;8716;52.268;20.968;2022-11-23T09:18:02;2.40;99.90
17200;DHT22;8716;52.268;20.968;2022-11-23T09:20:30;2.40;99.90
17200;DHT22;8716;52.268;20.968;2022-11-23T09:23:00;2.40;99.90
17200;DHT22;8716;52.268;20.968;2022-11-23T09:25:28;2.50;99.90
17200;DHT22;8716;52.268;20.968;2022-11-23T09:27:59;2.50;99.90
17200;DHT22;8716;52.268;20.968;2022-11-23T09:30:29;2.50;99.90
17200;DHT22;8716;52.268;20.968;2022-11-23T09:32:59;2.40;99.90
17200;DHT22;8716;52.268;20.968;2022-11-23T09:35:27;2.40;99.90
17200;DHT22;8716;52.268;20.968;2022-11-23T09:37:56;2.50;99.90
17200;DHT22;8716;52.268;20.968;2022-11-23T09:40:28;2.40;99.90
17200;DHT22;8716;52.268;20.968;2022-11-23T09:43:11;2.40;99.90
17200;DHT22;8716;52.268;20.968;2022-11-23T09:45:48;2.40;99.90
17200;DHT22;8716;52.268;20.968;2022-11-23T09:48:27;2.40;99.90
17200;DHT22;8716;52.268;20.968;2022-11-23T09:51:00;2.50;99.90
17200;DHT22;8716;52.268;20.968;2022-11-23T09:53:34;2.40;99.90
17200;DHT22;8716;52.268;20.968;2022-11-23T09:56:03;2.50;99.90
17200;DHT22;8716;52.268;20.968;2022-11-23T09:58:37;2.60;99.90
17200;DHT22;8716;52.268;20.968;2022-11-23T10:01:10;2.50;99.90
17200;DHT22;8716;52.268;20.968;2022-11-23T10:03:42;2.40;99.90
17200;DHT22;8716;52.268;20.968;2022-11-23T10:06:20;2.50;99.90
17200;DHT22;8716;52.268;20.968;2022-11-23T10:09:11;2.60;99.90
17200;DHT22;8716;52.268;20.968;2022-11-23T10:14:54;2.70;99.90
17200;DHT22;8716;52.268;20.968;2022-11-23T10:17:48;2.70;99.90
17200;DHT22;8716;52.268;20.968;2022-11-23T10:20:33;2.80;99.90
17200;DHT22;8716;52.268;20.968;2022-11-23T10:23:10;2.80;99.90
17200;DHT22;8716;52.268;20.968;2022-11-23T10:25:45;2.80;99.90
17200;DHT22;8716;52.268;20.968;2022-11-23T10:28:15;2.80;99.90
17200;DHT22;8716;52.268;20.968;2022-11-23T10:30:45;2.90;99.90
17200;DHT22;8716;52.268;20.968;2022-11-23T10:33:21;2.90;99.90
17200;DHT22;8716;52.268;20.968;2022-11-23T10:35:52;2.80;99.90
17200;DHT22;8716;52.268;20.968;2022-11-23T10:38:24;2.80;99.90
17200;DHT22;8716;52.268;20.968;2022-11-23T10:41:00;2.90;99.90
17200;DHT22;8716;52.268;20.968;2022-11-23T10:43:36;2.80;99.90
17200;DHT22;8716;52.268;20.968;2022-11-23T10:46:29;2.80;99.90
17200;DHT22;8716;52.268;20.968;2022-11-23T10:49:16;2.90;99.90
17200;DHT22;8716;52.268;20.968;2022-11-23T10:51:51;3.00;99.90
17200;DHT22;8716;52.268;20.968;2022-11-23T10:54:26;3.00;99.90
17200;DHT22;8716;52.268;20.968;2022-11-23T10:56:56;3.00;99.90
17200;DHT22;8716;52.268;20.968;2022-11-23T10:59:26;3.10;99.90
17200;DHT22;8716;52.268;20.968;2022-11-23T11:05:21;3.10;99.90
17200;DHT22;8716;52.268;20.968;2022-11-23T11:08:13;3.10;99.90
17200;DHT22;8716;52.268;20.968;2022-11-23T11:10:45;3.10;99.90
17200;DHT22;8716;52.268;20.968;2022-11-23T11:13:21;3.00;99.90
17200;DHT22;8716;52.268;20.968;2022-11-23T11:15:54;3.00;99.90
17200;DHT22;8716;52.268;20.968;2022-11-23T11:18:29;2.80;99.90
17200;DHT22;8716;52.268;20.968;2022-11-23T11:21:00;2.80;99.90
17200;DHT22;8716;52.268;20.968;2022-11-23T11:23:30;2.80;99.90
17200;DHT22;8716;52.268;20.968;2022-11-23T11:26:15;2.70;99.90
17200;DHT22;8716;52.268;20.968;2022-11-23T11:28:48;2.70;99.90
17200;DHT22;8716;52.268;20.968;2022-11-23T11:31:46;2.50;99.90
17200;DHT22;8716;52.268;20.968;2022-11-23T11:34:24;2.40;99.90
17200;DHT22;8716;52.268;20.968;2022-11-23T11:36:58;2.40;99.90
17200;DHT22;8716;52.268;20.968;2022-11-23T11:39:32;2.40;99.90
17200;DHT22;8716;52.268;20.968;2022-11-23T11:42:06;2.40;99.90
17200;DHT22;8716;52.268;20.968;2022-11-23T11:44:37;2.40;99.90
17200;DHT22;8716;52.268;20.968;2022-11-23T11:47:15;2.50;99.90
17200;DHT22;8716;52.268;20.968;2022-11-23T11:49:50;2.70;99.90
17200;DHT22;8716;52.268;20.968;2022-11-23T11:52:20;2.80;99.90
17200;DHT22;8716;52.268;20.968;2022-11-23T11:54:55;2.80;99.90
17200;DHT22;8716;52.268;20.968;2022-11-23T11:57:29;2.70;99.90
17200;DHT22;8716;52.268;20.968;2022-11-23T12:00:00;2.40;99.90
17200;DHT22;8716;52.268;20.968;2022-11-23T12:02:34;2.40;99.90
17200;DHT22;8716;52.268;20.968;2022-11-23T12:05:10;2.60;99.90
17200;DHT22;8716;52.268;20.968;2022-11-23T12:07:44;2.40;99.90
17200;DHT22;8716;52.268;20.968;2022-11-23T12:10:20;2.30;99.90
17200;DHT22;8716;52.268;20.968;2022-11-23T12:12:51;2.50;99.90
17200;DHT22;8716;52.268;20.968;2022-11-23T12:15:22;2.60;99.90
17200;DHT22;8716;52.268;20.968;2022-11-23T12:18:23;2.70;99.90
17200;DHT22;8716;52.268;20.968;2022-11-23T12:21:00;2.80;99.90
17200;DHT22;8716;52.268;20.968;2022-11-23T12:23:39;2.80;99.90
17200;DHT22;8716;52.268;20.968;2022-11-23T12:26:19;2.90;99.90
17200;DHT22;8716;52.268;20.968;2022-11-23T12:29:03;2.90;99.90
17200;DHT22;8716;52.268;20.968;2022-11-23T12:31:41;3.00;99.90
17200;DHT22;8716;52.268;20.968;2022-11-23T12:34:25;3.00;99.90
17200;DHT22;8716;52.268;20.968;2022-11-23T12:37:15;2.90;99.90
17200;DHT22;8716;52.268;20.968;2022-11-23T12:40:02;3.00;99.90
17200;DHT22;8716;52.268;20.968;2022-11-23T12:42:41;3.00;99.90
17200;DHT22;8716;52.268;20.968;2022-11-23T12:45:21;2.90;99.90
17200;DHT22;8716;52.268;20.968;2022-11-23T12:48:01;2.90;99.90
17200;DHT22;8716;52.268;20.968;2022-11-23T12:50:34;3.00;99.90
17200;DHT22;8716;52.268;20.968;2022-11-23T12:53:22;3.00;99.90
17200;DHT22;8716;52.268;20.968;2022-11-23T12:55:58;2.80;99.90
17200;DHT22;8716;52.268;20.968;2022-11-23T12:58:32;2.80;99.90
17200;DHT22;8716;52.268;20.968;2022-11-23T13:01:05;2.70;99.90
17200;DHT22;8716;52.268;20.968;2022-11-23T13:04:04;2.80;99.90
17200;DHT22;8716;52.268;20.968;2022-11-23T13:10:33;2.90;99.90
17200;DHT22;8716;52.268;20.968;2022-11-23T13:16:21;2.90;99.90
17200;DHT22;8716;52.268;20.968;2022-11-23T13:19:05;2.80;99.90
17200;DHT22;8716;52.268;20.968;2022-11-23T13:21:42;2.80;99.90
17200;DHT22;8716;52.268;20.968;2022-11-23T13:24:24;2.70;99.90
17200;DHT22;8716;52.268;20.968;2022-11-23T13:29:58;2.80;99.90
17200;DHT22;8716;52.268;20.968;2022-11-23T13:32:46;2.70;99.90
17200;DHT22;8716;52.268;20.968;2022-11-23T13:38:40;2.70;99.90
17200;DHT22;8716;52.268;20.968;2022-11-23T13:44:23;2.70;99.90
17200;DHT22;8716;52.268;20.968;2022-11-23T13:47:18;2.80;99.90
17200;DHT22;8716;52.268;20.968;2022-11-23T13:49:49;2.80;99.90
17200;DHT22;8716;52.268;20.968;2022-11-23T13:52:26;2.90;99.90
17200;DHT22;8716;52.268;20.968;2022-11-23T13:54:59;2.80;99.90
17200;DHT22;8716;52.268;20.968;2022-11-23T13:57:38;2.80;99.90
17200;DHT22;8716;52.268;20.968;2022-11-23T14:00:44;2.70;99.90
17200;DHT22;8716;52.268;20.968;2022-11-23T14:03:44;2.70;99.90
17200;DHT22;8716;52.268;20.968;2022-11-23T14:06:19;2.60;99.90
17200;DHT22;8716;52.268;20.968;2022-11-23T14:08:56;2.60;99.90
17200;DHT22;8716;52.268;20.968;2022-11-23T14:11:26;2.70;99.90
17200;DHT22;8716;52.268;20.968;2022-11-23T14:13:59;2.60;99.90
17200;DHT22;8716;52.268;20.968;2022-11-23T14:17:04;2.60;99.90
17200;DHT22;8716;52.268;20.968;2022-11-23T14:19:44;2.50;99.90
17200;DHT22;8716;52.268;20.968;2022-11-23T14:22:24;2.50;99.90
17200;DHT22;8716;52.268;20.968;2022-11-23T14:25:16;2.40;99.90
17200;DHT22;8716;52.268;20.968;2022-11-23T14:27:58;2.30;99.90
17200;DHT22;8716;52.268;20.968;2022-11-23T14:30:39;2.20;99.90
17200;DHT22;8716;52.268;20.968;2022-11-23T14:33:21;2.10;99.90
17200;DHT22;8716;52.268;20.968;2022-11-23T14:35:58;2.00;99.90
17200;DHT22;8716;52.268;20.968;2022-11-23T14:38:55;2.00;99.90
17200;DHT22;8716;52.268;20.968;2022-11-23T14:41:30;2.10;99.90
17200;DHT22;8716;52.268;20.968;2022-11-23T14:44:02;2.20;99.90
17200;DHT22;8716;52.268;20.968;2022-11-23T14:46:30;2.10;99.90
17200;DHT22;8716;52.268;20.968;2022-11-23T14:49:05;2.10;99.90
17200;DHT22;8716;52.268;20.968;2022-11-23T14:51:41;2.00;99.90
17200;DHT22;8716;52.268;20.968;2022-11-23T14:54:14;1.90;99.90
17200;DHT22;8716;52.268;20.968;2022-11-23T14:56:44;1.80;99.90
17200;DHT22;8716;52.268;20.968;2022-11-23T14:59:18;1.80;99.90
17200;DHT22;8716;52.268;20.968;2022-11-23T15:01:50;1.80;99.90
17200;DHT22;8716;52.268;20.968;2022-11-23T15:04:24;1.90;99.90
17200;DHT22;8716;52.268;20.968;2022-11-23T15:06:58;2.00;99.90
17200;DHT22;8716;52.268;20.968;2022-11-23T15:09:38;2.10;99.90
17200;DHT22;8716;52.268;20.968;2022-11-23T15:12:19;2.00;99.90
17200;DHT22;8716;52.268;20.968;2022-11-23T15:14:49;2.20;99.90
17200;DHT22;8716;52.268;20.968;2022-11-23T15:17:20;2.20;99.90
17200;DHT22;8716;52.268;20.968;2022-11-23T15:19:53;2.30;99.90
17200;DHT22;8716;52.268;20.968;2022-11-23T15:22:22;2.30;99.90
17200;DHT22;8716;52.268;20.968;2022-11-23T15:24:52;2.20;99.90
17200;DHT22;8716;52.268;20.968;2022-11-23T15:27:24;2.00;99.90
17200;DHT22;8716;52.268;20.968;2022-11-23T15:29:56;2.00;99.90
17200;DHT22;8716;52.268;20.968;2022-11-23T15:32:27;2.00;99.90
17200;DHT22;8716;52.268;20.968;2022-11-23T15:35:01;2.10;99.90
17200;DHT22;8716;52.268;20.968;2022-11-23T15:37:29;2.10;99.90
17200;DHT22;8716;52.268;20.968;2022-11-23T15:39:59;1.90;99.90
17200;DHT22;8716;52.268;20.968;2022-11-23T15:42:27;1.80;99.90
17200;DHT22;8716;52.268;20.968;2022-11-23T15:44:56;1.80;99.90
17200;DHT22;8716;52.268;20.968;2022-11-23T15:47:26;1.80;99.90
17200;DHT22;8716;52.268;20.968;2022-11-23T15:49:58;1.80;99.90
17200;DHT22;8716;52.268;20.968;2022-11-23T15:52:33;1.80;99.90
17200;DHT22;8716;52.268;20.968;2022-11-23T15:55:06;1.80;99.90
17200;DHT22;8716;52.268;20.968;2022-11-23T15:57:36;1.70;99.90
17200;DHT22;8716;52.268;20.968;2022-11-23T16:00:07;1.80;99.90
17200;DHT22;8716;52.268;20.968;2022-11-23T16:02:40;1.80;99.90
17200;DHT22;8716;52.268;20.968;2022-11-23T16:05:12;1.70;99.90
17200;DHT22;8716;52.268;20.968;2022-11-23T16:07:51;1.70;99.90
17200;DHT22;8716;52.268;20.968;2022-11-23T16:10:23;1.70;99.90
17200;DHT22;8716;52.268;20.968;2022-11-23T16:12:53;1.70;99.90
17200;DHT22;8716;52.268;20.968;2022-11-23T16:15:45;1.80;99.90
17200;DHT22;8716;52.268;20.968;2022-11-23T16:18:42;1.90;99.90
17200;DHT22;8716;52.268;20.968;2022-11-23T16:21:14;2.00;99.90
17200;DHT22;8716;52.268;20.968;2022-11-23T16:23:47;1.90;99.90
17200;DHT22;8716;52.268;20.968;2022-11-23T16:26:18;2.10;99.90
17200;DHT22;8716;52.268;20.968;2022-11-23T16:28:51;2.00;99.90
17200;DHT22;8716;52.268;20.968;2022-11-23T16:31:26;2.00;99.90
17200;DHT22;8716;52.268;20.968;2022-11-23T16:33:56;1.80;99.90
17200;DHT22;8716;52.268;20.968;2022-11-23T16:36:26;1.70;99.90
17200;DHT22;8716;52.268;20.968;2022-11-23T16:38:54;1.70;99.90
17200;DHT22;8716;52.268;20.968;2022-11-23T16:41:31;1.70;99.90
17200;DHT22;8716;52.268;20.968;2022-11-23T16:43:59;1.90;99.90
17200;DHT22;8716;52.268;20.968;2022-11-23T16:46:27;1.80;99.90